Time;durP1;ratioP1;P1;durP2;ratioP2;P2;SDS_P1;SDS_P2;PMS_P1;PMS_P2;Temp;Humidity;BMP_temperature;BMP_pressure;BME280_temperature;BME280_humidity;BME280_pressure;Samples;Min_cycle;Max_cycle;Signal;HPM_P1;HPM_P2
2021/07/08 00:00:57;;;;;;;10.23;9.20;;;;;24.00;100784.00;;;;2061678;28;20223;-56
2021/07/08 00:01:58;;;;;;;11.80;10.63;;;;;23.90;100794.00;;;;2061675;28;20210;-54
2021/07/08 00:02:58;;;;;;;10.83;9.73;;;;;24.00;100782.00;;;;2061631;28;20226;-56
2021/07/08 00:03:58;;;;;;;10.90;9.80;;;;;24.00;100785.00;;;;2062348;28;20597;-56
2021/07/08 00:04:59;;;;;;;11.63;10.43;;;;;24.00;100781.00;;;;2062410;28;20226;-56
2021/07/08 00:05:59;;;;;;;11.20;10.20;;;;;24.00;100787.00;;;;2062152;28;20215;-55
2021/07/08 00:06:59;;;;;;;11.97;10.13;;;;;24.00;100785.00;;;;2062169;28;20214;-56
2021/07/08 00:08:00;;;;;;;10.33;9.33;;;;;24.00;100777.00;;;;2062437;28;20218;-56
2021/07/08 00:09:01;;;;;;;10.80;9.70;;;;;24.00;100781.00;;;;2062081;28;20649;-56
2021/07/08 00:10:05;;;;;;;10.40;9.40;;;;;24.10;100783.00;;;;2062415;28;20223;-54
2021/07/08 00:11:05;;;;;;;10.88;9.82;;;;;24.10;100781.00;;;;2067576;28;20582;-55
2021/07/08 00:12:06;;;;;;;11.40;8.87;;;;;24.10;100787.00;;;;2070651;28;20218;-55
2021/07/08 00:13:07;;;;;;;10.27;9.27;;;;;24.10;100789.00;;;;2070099;28;20214;-57
2021/07/08 00:14:07;;;;;;;10.47;7.73;;;;;24.10;100798.00;;;;2070272;28;20210;-55
2021/07/08 00:15:12;;;;;;;9.73;8.10;;;;;24.00;100784.00;;;;2070484;28;20817;-56
2021/07/08 00:16:12;;;;;;;9.32;7.90;;;;;24.10;100786.00;;;;2069306;28;20298;-55
2021/07/08 00:17:13;;;;;;;8.60;7.80;;;;;24.00;100789.00;;;;2061051;28;20230;-54
2021/07/08 00:18:13;;;;;;;9.40;8.23;;;;;24.00;100786.00;;;;2064841;28;20210;-55
2021/07/08 00:19:13;;;;;;;7.83;7.10;;;;;24.10;100790.00;;;;2063690;28;20207;-53
2021/07/08 00:20:16;;;;;;;8.33;7.50;;;;;24.00;100784.00;;;;2061649;28;20214;-55
2021/07/08 00:21:16;;;;;;;8.10;7.30;;;;;24.00;100784.00;;;;2066969;28;20285;-55
2021/07/08 00:22:17;;;;;;;8.57;7.30;;;;;24.00;100781.00;;;;2069905;28;20460;-55
2021/07/08 00:23:18;;;;;;;7.47;6.77;;;;;24.00;100793.00;;;;2069840;28;20210;-55
2021/07/08 00:24:18;;;;;;;8.05;7.25;;;;;24.00;100789.00;;;;2070367;28;20373;-55
2021/07/08 00:25:21;;;;;;;7.77;7.07;;;;;24.00;100795.00;;;;2070308;28;20280;-55
2021/07/08 00:26:21;;;;;;;7.40;6.60;;;;;24.00;100793.00;;;;2069375;28;20268;-54
2021/07/08 00:27:22;;;;;;;6.83;6.20;;;;;24.00;100792.00;;;;2070536;28;20222;-54
2021/07/08 00:28:22;;;;;;;7.27;6.57;;;;;24.00;100787.00;;;;2070330;28;20219;-56
2021/07/08 00:29:23;;;;;;;9.77;6.90;;;;;23.90;100789.00;;;;2069018;28;20580;-57
2021/07/08 00:30:23;;;;;;;7.90;6.13;;;;;24.00;100788.00;;;;2070133;28;20222;-56
2021/07/08 00:31:24;;;;;;;7.03;6.27;;;;;24.00;100794.00;;;;2071515;28;20687;-56
2021/07/08 00:32:24;;;;;;;7.23;6.63;;;;;24.00;100779.00;;;;2071604;28;20223;-56
2021/07/08 00:33:24;;;;;;;7.53;6.60;;;;;24.00;100780.00;;;;2071230;28;20210;-55
2021/07/08 00:34:25;;;;;;;6.97;6.17;;;;;24.00;100785.00;;;;2071477;28;20241;-56
2021/07/08 00:35:25;;;;;;;7.33;6.20;;;;;24.00;100778.00;;;;2071189;28;20801;-56
2021/07/08 00:36:25;;;;;;;8.17;6.30;;;;;24.00;100782.00;;;;2071335;28;20706;-56
2021/07/08 00:37:26;;;;;;;6.43;5.83;;;;;24.00;100783.00;;;;2071447;28;20226;-56
2021/07/08 00:38:26;;;;;;;6.50;5.83;;;;;24.00;100783.00;;;;2071617;28;20226;-56
2021/07/08 00:39:27;;;;;;;6.90;6.20;;;;;24.00;100782.00;;;;2071388;28;20214;-55
2021/07/08 00:40:27;;;;;;;6.20;5.60;;;;;24.10;100785.00;;;;2070241;28;20279;-55
2021/07/08 00:41:28;;;;;;;5.27;4.73;;;;;24.10;100782.00;;;;2071471;28;20300;-56
2021/07/08 00:42:28;;;;;;;6.90;5.63;;;;;24.10;100792.00;;;;2071437;28;20297;-56
2021/07/08 00:43:30;;;;;;;6.90;5.77;;;;;24.10;100783.00;;;;2071640;28;20264;-56
2021/07/08 00:44:31;;;;;;;6.10;5.40;;;;;24.10;100786.00;;;;2071525;28;20225;-54
2021/07/08 00:45:31;;;;;;;6.70;5.20;;;;;24.10;100779.00;;;;2071633;28;20313;-53
2021/07/08 00:46:31;;;;;;;6.60;5.50;;;;;24.00;100794.00;;;;2071986;28;20218;-55
2021/07/08 00:47:32;;;;;;;5.93;5.30;;;;;24.00;100791.00;;;;2068843;28;20637;-55
2021/07/08 00:48:32;;;;;;;5.57;5.07;;;;;24.00;100792.00;;;;2064524;28;20235;-55
2021/07/08 00:49:33;;;;;;;5.93;5.00;;;;;24.00;100791.00;;;;2063054;28;20726;-54
2021/07/08 00:50:36;;;;;;;5.33;4.83;;;;;24.00;100794.00;;;;2062020;28;20320;-55
2021/07/08 00:51:36;;;;;;;5.15;4.53;;;;;24.00;100794.00;;;;2062838;28;20293;-56
2021/07/08 00:52:36;;;;;;;5.50;4.73;;;;;24.00;100796.00;;;;2063330;28;20715;-54
2021/07/08 00:53:37;;;;;;;5.03;4.53;;;;;24.00;100797.00;;;;2063383;28;20214;-55
2021/07/08 00:54:37;;;;;;;5.20;4.70;;;;;24.00;100787.00;;;;2063258;28;20233;-56
2021/07/08 00:55:37;;;;;;;5.33;4.93;;;;;24.00;100795.00;;;;2063423;28;20230;-56
2021/07/08 00:56:38;;;;;;;4.93;4.50;;;;;24.00;100786.00;;;;2069548;28;20214;-56
2021/07/08 00:57:51;;;;;;;5.73;4.60;;;;;24.10;100795.00;;;;2071341;28;20218;-55
2021/07/08 00:59:02;;;;;;;5.47;4.28;;;;;24.10;100797.00;;;;2070498;28;20297;-55
2021/07/08 01:00:03;;;;;;;4.63;4.22;;;;;24.00;100790.00;;;;2070912;28;20281;-54
2021/07/08 01:01:04;;;;;;;4.60;4.13;;;;;24.00;100789.00;;;;2070047;28;21360;-55
2021/07/08 01:02:04;;;;;;;4.28;3.95;;;;;24.00;100782.00;;;;2071468;28;20268;-56
2021/07/08 01:03:08;;;;;;;4.90;4.40;;;;;24.00;100787.00;;;;2070378;28;20214;-55
2021/07/08 01:04:08;;;;;;;4.45;4.03;;;;;24.00;100786.00;;;;2070415;28;20222;-55
2021/07/08 01:05:09;;;;;;;4.17;3.77;;;;;24.10;100782.00;;;;2062690;28;20238;-56
2021/07/08 01:06:10;;;;;;;4.20;3.80;;;;;24.10;100783.00;;;;2062171;28;20226;-55
2021/07/08 01:07:11;;;;;;;3.93;3.60;;;;;24.10;100784.00;;;;2070830;28;20210;-56
2021/07/08 01:08:12;;;;;;;4.65;4.00;;;;;24.10;100769.00;;;;2062601;28;20688;-54
2021/07/08 01:09:13;;;;;;;4.33;3.93;;;;;24.10;100789.00;;;;2062195;28;20245;-55
2021/07/08 01:10:16;;;;;;;4.20;3.80;;;;;24.10;100789.00;;;;2069504;28;20456;-56
2021/07/08 01:11:16;;;;;;;4.15;3.70;;;;;24.00;100788.00;;;;2070467;28;20989;-55
2021/07/08 01:12:17;;;;;;;5.77;4.33;;;;;24.10;100785.00;;;;2070556;28;20219;-55
2021/07/08 01:13:18;;;;;;;5.07;3.97;;;;;24.00;100774.00;;;;2071145;28;20214;-53
2021/07/08 01:14:18;;;;;;;4.27;3.73;;;;;24.00;100788.00;;;;2071363;28;20552;-57
2021/07/08 01:15:18;;;;;;;4.97;4.33;;;;;23.90;100786.00;;;;2066244;28;20610;-55
2021/07/08 01:16:19;;;;;;;4.90;3.90;;;;;24.00;100782.00;;;;2067617;28;20645;-55
2021/07/08 01:17:21;;;;;;;3.90;3.50;;;;;24.10;100785.00;;;;2065675;28;20219;-53
2021/07/08 01:18:22;;;;;;;4.60;4.20;;;;;24.00;100788.00;;;;2072255;28;20294;-56
2021/07/08 01:19:24;;;;;;;4.03;3.60;;;;;24.00;100780.00;;;;2066873;28;20574;-56
2021/07/08 01:20:26;;;;;;;5.90;3.95;;;;;24.00;100779.00;;;;2062124;28;20246;-54
2021/07/08 01:21:27;;;;;;;4.47;3.60;;;;;24.00;100783.00;;;;2063522;28;20711;-54
2021/07/08 01:22:27;;;;;;;4.27;3.73;;;;;24.00;100783.00;;;;2063619;28;20219;-53
2021/07/08 01:23:27;;;;;;;4.03;3.63;;;;;24.00;100776.00;;;;2062724;28;20226;-54
2021/07/08 01:24:28;;;;;;;5.30;3.60;;;;;24.00;100773.00;;;;2063479;28;20222;-54
2021/07/08 01:25:38;;;;;;;6.10;3.37;;;;;24.00;100776.00;;;;2062695;28;20320;-53
2021/07/08 01:26:39;;;;;;;4.13;3.80;;;;;24.00;100779.00;;;;2067485;28;20218;-53
2021/07/08 01:27:39;;;;;;;3.60;3.30;;;;;24.00;100785.00;;;;2071642;28;20214;-56
2021/07/08 01:28:40;;;;;;;3.70;3.33;;;;;24.00;100780.00;;;;2071687;28;20297;-53
2021/07/08 01:29:40;;;;;;;3.93;3.53;;;;;24.00;100779.00;;;;2070530;28;20698;-55
2021/07/08 01:30:44;;;;;;;3.90;3.47;;;;;24.00;100776.00;;;;2062013;28;20219;-56
2021/07/08 01:31:44;;;;;;;3.92;3.50;;;;;24.00;100789.00;;;;2063072;28;20219;-54
2021/07/08 01:32:44;;;;;;;5.40;3.60;;;;;23.90;100783.00;;;;2063447;28;20731;-56
2021/07/08 01:33:45;;;;;;;4.37;3.97;;;;;23.90;100780.00;;;;2063129;28;20711;-56
2021/07/08 01:34:45;;;;;;;3.77;3.47;;;;;24.00;100778.00;;;;2062888;28;20276;-55
2021/07/08 01:35:46;;;;;;;3.70;3.40;;;;;23.90;100776.00;;;;2062727;28;20222;-55
2021/07/08 01:36:46;;;;;;;3.73;3.37;;;;;23.90;100777.00;;;;2062474;28;20234;-55
2021/07/08 01:37:47;;;;;;;3.10;2.90;;;;;23.90;100777.00;;;;2062652;28;20234;-55
2021/07/08 01:38:47;;;;;;;3.57;3.27;;;;;23.90;100778.00;;;;2062783;28;20219;-56
2021/07/08 01:39:47;;;;;;;4.10;3.53;;;;;23.90;100779.00;;;;2063252;28;20211;-55
2021/07/08 01:40:48;;;;;;;5.20;3.50;;;;;23.90;100784.00;;;;2062211;28;20354;-54
2021/07/08 01:41:48;;;;;;;3.30;3.00;;;;;23.90;100787.00;;;;2062989;28;20219;-56
2021/07/08 01:42:49;;;;;;;3.73;3.40;;;;;24.00;100782.00;;;;2063310;28;20214;-53
2021/07/08 01:43:49;;;;;;;3.30;3.03;;;;;24.00;100781.00;;;;2063041;28;20711;-56
2021/07/08 01:44:49;;;;;;;3.43;3.13;;;;;24.00;100783.00;;;;2063383;28;20293;-55
2021/07/08 01:45:50;;;;;;;3.30;3.00;;;;;24.00;100775.00;;;;2062674;28;20687;-56
2021/07/08 01:46:50;;;;;;;3.43;3.13;;;;;24.00;100771.00;;;;2070906;28;20206;-54
2021/07/08 01:47:50;;;;;;;3.30;3.00;;;;;23.90;100778.00;;;;2063708;28;20718;-55
2021/07/08 01:48:51;;;;;;;3.50;3.20;;;;;23.90;100777.00;;;;2063556;28;20243;-53
2021/07/08 01:49:51;;;;;;;6.37;3.07;;;;;23.90;100778.00;;;;2063521;28;20210;-57
2021/07/08 01:50:52;;;;;;;3.80;3.50;;;;;23.90;100776.00;;;;2062483;28;20223;-54
2021/07/08 01:51:52;;;;;;;5.97;3.30;;;;;23.90;100774.00;;;;2058219;28;20267;-57
2021/07/08 01:52:52;;;;;;;3.20;2.90;;;;;24.00;100777.00;;;;2054337;28;20243;-55
2021/07/08 01:53:53;;;;;;;3.40;3.10;;;;;23.90;100771.00;;;;2063392;28;20236;-54
2021/07/08 01:54:53;;;;;;;3.43;3.13;;;;;23.90;100773.00;;;;2063015;28;20202;-56
2021/07/08 01:55:56;;;;;;;3.50;3.20;;;;;23.90;100776.00;;;;2062840;28;20322;-53
2021/07/08 01:56:57;;;;;;;3.70;3.40;;;;;23.90;100767.00;;;;2062525;28;20231;-54
2021/07/08 01:57:57;;;;;;;3.80;2.93;;;;;23.90;100773.00;;;;2062093;28;21293;-53
2021/07/08 01:58:58;;;;;;;3.50;3.20;;;;;23.90;100782.00;;;;2062114;28;20226;-56
2021/07/08 01:59:58;;;;;;;3.23;2.93;;;;;23.90;100779.00;;;;2062583;28;20325;-55
2021/07/08 02:00:58;;;;;;;2.90;2.70;;;;;23.90;100772.00;;;;2061179;28;20257;-55
2021/07/08 02:01:59;;;;;;;3.30;3.00;;;;;23.90;100780.00;;;;2061975;28;20211;-56
2021/07/08 02:02:59;;;;;;;3.53;3.10;;;;;23.90;100778.00;;;;2062922;28;20203;-55
2021/07/08 02:03:59;;;;;;;3.33;2.80;;;;;23.90;100779.00;;;;2062442;28;20214;-56
2021/07/08 02:05:00;;;;;;;3.03;2.80;;;;;23.90;100782.00;;;;2062743;28;20207;-57
2021/07/08 02:06:00;;;;;;;3.37;3.07;;;;;23.90;100776.00;;;;2062602;28;20226;-55
2021/07/08 02:07:01;;;;;;;3.60;3.30;;;;;23.90;100773.00;;;;2062531;28;20234;-53
2021/07/08 02:08:01;;;;;;;3.50;3.20;;;;;23.90;100782.00;;;;2062224;28;20261;-53
2021/07/08 02:09:04;;;;;;;3.10;2.67;;;;;23.90;100769.00;;;;2062475;28;20241;-57
2021/07/08 02:10:06;;;;;;;2.90;2.70;;;;;23.90;100776.00;;;;2062452;28;20825;-56
2021/07/08 02:11:07;;;;;;;2.95;2.65;;;;;23.90;100770.00;;;;2061888;28;20952;-56
2021/07/08 02:12:09;;;;;;;2.87;2.67;;;;;23.90;100773.00;;;;2062668;28;20215;-54
2021/07/08 02:13:10;;;;;;;3.15;2.85;;;;;23.90;100780.00;;;;2062807;28;20458;-53
2021/07/08 02:14:11;;;;;;;3.17;2.87;;;;;23.90;100769.00;;;;2062846;28;20323;-54
2021/07/08 02:15:11;;;;;;;2.80;2.60;;;;;23.90;100777.00;;;;2062532;28;20461;-54
2021/07/08 02:16:12;;;;;;;2.70;2.50;;;;;23.90;100779.00;;;;2064569;28;20281;-55
2021/07/08 02:17:12;;;;;;;3.30;3.00;;;;;23.90;100773.00;;;;2071526;28;20317;-57
2021/07/08 02:18:12;;;;;;;2.87;2.30;;;;;23.90;100770.00;;;;2070089;28;20206;-55
2021/07/08 02:19:13;;;;;;;3.00;2.70;;;;;23.90;100779.00;;;;2063780;28;20250;-54
2021/07/08 02:20:14;;;;;;;3.17;2.90;;;;;23.90;100777.00;;;;2061567;28;20215;-56
2021/07/08 02:21:14;;;;;;;2.50;2.30;;;;;23.90;100776.00;;;;2062512;28;20758;-57
2021/07/08 02:22:14;;;;;;;2.67;2.40;;;;;23.90;100777.00;;;;2063193;28;20441;-57
2021/07/08 02:23:15;;;;;;;3.20;2.97;;;;;23.90;100778.00;;;;2063250;28;21079;-57
2021/07/08 02:24:15;;;;;;;2.43;2.23;;;;;23.90;100781.00;;;;2063192;28;20583;-55
2021/07/08 02:25:16;;;;;;;2.83;2.63;;;;;23.90;100776.00;;;;2063158;28;20302;-55
2021/07/08 02:26:16;;;;;;;2.70;2.40;;;;;23.90;100790.00;;;;2063034;28;20219;-55
2021/07/08 02:27:16;;;;;;;2.50;2.30;;;;;23.90;100778.00;;;;2063041;28;20751;-56
2021/07/08 02:28:17;;;;;;;3.10;2.67;;;;;23.90;100770.00;;;;2063187;28;20617;-54
2021/07/08 02:29:17;;;;;;;2.93;2.57;;;;;23.90;100771.00;;;;2063029;28;20218;-55
2021/07/08 02:30:19;;;;;;;4.07;2.93;;;;;23.90;100770.00;;;;2061278;28;20214;-55
2021/07/08 02:31:19;;;;;;;2.53;2.33;;;;;23.90;100777.00;;;;2062709;28;20246;-55
2021/07/08 02:32:20;;;;;;;3.30;2.40;;;;;23.90;100773.00;;;;2062453;28;20230;-54
2021/07/08 02:33:20;;;;;;;3.23;2.70;;;;;23.90;100774.00;;;;2062680;28;20211;-56
2021/07/08 02:34:20;;;;;;;2.53;2.33;;;;;23.90;100774.00;;;;2062998;28;20219;-56
2021/07/08 02:35:22;;;;;;;2.57;2.37;;;;;23.90;100779.00;;;;2063177;28;20218;-56
2021/07/08 02:36:22;;;;;;;3.00;2.80;;;;;23.90;100781.00;;;;2063013;28;20631;-53
2021/07/08 02:37:22;;;;;;;2.63;2.43;;;;;23.90;100789.00;;;;2070507;28;20233;-53
2021/07/08 02:38:23;;;;;;;2.93;2.50;;;;;23.90;100768.00;;;;2071150;28;20753;-56
2021/07/08 02:39:23;;;;;;;3.03;2.50;;;;;23.90;100767.00;;;;2071001;28;20683;-54
2021/07/08 02:40:31;;;;;;;2.40;2.20;;;;;23.90;100770.00;;;;2063493;28;20210;-54
2021/07/08 02:41:31;;;;;;;2.58;2.38;;;;;23.90;100774.00;;;;2067643;28;20630;-53
2021/07/08 02:42:32;;;;;;;2.90;2.70;;;;;23.90;100777.00;;;;2071141;28;20295;-54
2021/07/08 02:43:32;;;;;;;2.97;2.77;;;;;23.90;100777.00;;;;2070869;28;20656;-56
2021/07/08 02:44:33;;;;;;;2.57;2.30;;;;;23.90;100773.00;;;;2070941;28;20225;-56
2021/07/08 02:45:34;;;;;;;2.60;2.40;;;;;23.90;100774.00;;;;2070737;28;20210;-54
2021/07/08 02:46:35;;;;;;;2.78;2.50;;;;;23.80;100778.00;;;;2068859;28;20643;-56
2021/07/08 02:47:35;;;;;;;2.43;2.23;;;;;23.90;100777.00;;;;2066455;28;20214;-57
2021/07/08 02:48:35;;;;;;;3.33;2.90;;;;;23.90;100779.00;;;;2062527;28;20707;-56
2021/07/08 02:49:36;;;;;;;2.20;2.07;;;;;23.90;100785.00;;;;2062782;28;20223;-55
2021/07/08 02:50:37;;;;;;;2.73;2.50;;;;;23.80;100784.00;;;;2061900;28;20207;-56
2021/07/08 02:51:38;;;;;;;2.50;2.30;;;;;23.80;100779.00;;;;2062862;28;20479;-55
2021/07/08 02:52:38;;;;;;;3.27;2.80;;;;;23.80;100785.00;;;;2061851;28;20285;-54
2021/07/08 02:53:38;;;;;;;2.60;2.40;;;;;23.80;100781.00;;;;2066884;28;20210;-54
2021/07/08 02:54:39;;;;;;;2.77;2.40;;;;;23.80;100786.00;;;;2070802;28;20225;-53
2021/07/08 02:55:39;;;;;;;2.67;2.17;;;;;23.90;100785.00;;;;2070969;28;20233;-57
2021/07/08 02:56:40;;;;;;;3.27;2.60;;;;;23.80;100781.00;;;;2071034;28;20630;-56
2021/07/08 02:57:40;;;;;;;2.20;2.00;;;;;23.90;100774.00;;;;2070892;28;20210;-54
2021/07/08 02:58:41;;;;;;;2.60;2.40;;;;;23.80;100766.00;;;;2070962;28;20229;-55
2021/07/08 02:59:41;;;;;;;2.33;2.10;;;;;23.80;100775.00;;;;2070608;28;20218;-55
2021/07/08 03:00:41;;;;;;;2.60;2.40;;;;;23.80;100775.00;;;;2069770;28;20218;-57
2021/07/08 03:01:42;;;;;;;2.50;2.10;;;;;23.80;100784.00;;;;2070980;28;20210;-55
2021/07/08 03:02:42;;;;;;;3.50;2.10;;;;;23.80;100774.00;;;;2071008;28;20218;-55
2021/07/08 03:03:42;;;;;;;2.80;2.60;;;;;23.80;100779.00;;;;2070876;28;20218;-55
2021/07/08 03:04:44;;;;;;;2.67;2.37;;;;;23.80;100767.00;;;;2070801;28;20233;-53
2021/07/08 03:05:44;;;;;;;2.55;2.35;;;;;23.80;100747.00;;;;2070806;28;20214;-55
2021/07/08 03:06:45;;;;;;;2.70;2.47;;;;;23.80;100782.00;;;;2070673;28;20222;-56
2021/07/08 03:07:45;;;;;;;2.00;1.90;;;;;23.80;100782.00;;;;2070942;28;20233;-55
2021/07/08 03:08:45;;;;;;;2.30;2.13;;;;;23.80;100782.00;;;;2070766;28;20214;-56
2021/07/08 03:09:46;;;;;;;2.90;2.30;;;;;23.80;100778.00;;;;2070942;28;20308;-56
2021/07/08 03:10:46;;;;;;;2.50;2.23;;;;;23.80;100783.00;;;;2068997;28;20246;-53
2021/07/08 03:11:47;;;;;;;2.63;2.43;;;;;23.80;100787.00;;;;2070239;28;20256;-54
2021/07/08 03:12:47;;;;;;;2.63;2.20;;;;;23.80;100780.00;;;;2070932;28;20210;-54
2021/07/08 03:13:47;;;;;;;2.33;2.20;;;;;23.80;100785.00;;;;2070942;28;20214;-54
2021/07/08 03:14:48;;;;;;;2.90;2.70;;;;;23.80;100787.00;;;;2070435;28;20220;-57
2021/07/08 03:15:48;;;;;;;2.10;1.90;;;;;23.80;100782.00;;;;2070847;28;20308;-54
2021/07/08 03:16:48;;;;;;;2.60;2.40;;;;;23.80;100781.00;;;;2068200;28;20202;-53
2021/07/08 03:17:49;;;;;;;2.67;2.47;;;;;23.80;100786.00;;;;2065129;28;20334;-54
2021/07/08 03:18:50;;;;;;;2.40;2.20;;;;;23.80;100776.00;;;;2064257;28;20215;-57
2021/07/08 03:19:50;;;;;;;3.00;2.10;;;;;23.80;100790.00;;;;2062599;28;20962;-57
2021/07/08 03:20:50;;;;;;;2.50;2.27;;;;;23.80;100791.00;;;;2061743;28;20702;-54
2021/07/08 03:21:51;;;;;;;2.40;2.20;;;;;23.80;100795.00;;;;2062601;28;20320;-55
2021/07/08 03:22:51;;;;;;;2.23;2.10;;;;;23.80;100799.00;;;;2062749;28;20305;-53
2021/07/08 03:23:52;;;;;;;2.10;2.00;;;;;23.80;100797.00;;;;2067282;28;20210;-53
2021/07/08 03:24:52;;;;;;;2.67;2.47;;;;;23.80;100801.00;;;;2070700;28;20309;-56
2021/07/08 03:25:52;;;;;;;2.30;2.10;;;;;23.80;100797.00;;;;2070802;28;20214;-55
2021/07/08 03:26:53;;;;;;;3.80;2.00;;;;;23.80;100797.00;;;;2070689;28;20207;-54
2021/07/08 03:27:54;;;;;;;2.57;2.37;;;;;23.80;100806.00;;;;2070582;28;20271;-52
2021/07/08 03:28:54;;;;;;;2.73;2.30;;;;;23.80;100798.00;;;;2070353;28;20256;-56
2021/07/08 03:29:54;;;;;;;2.60;2.23;;;;;23.80;100799.00;;;;2070802;28;20230;-56
2021/07/08 03:30:55;;;;;;;2.37;2.17;;;;;23.80;100792.00;;;;2069309;28;20222;-52
2021/07/08 03:31:55;;;;;;;2.30;2.10;;;;;23.80;100801.00;;;;2070762;28;20226;-54
2021/07/08 03:32:56;;;;;;;2.17;1.97;;;;;23.80;100797.00;;;;2070609;28;20297;-56
2021/07/08 03:33:56;;;;;;;2.30;2.20;;;;;23.80;100799.00;;;;2070689;28;20308;-54
2021/07/08 03:34:56;;;;;;;2.27;2.07;;;;;23.80;100792.00;;;;2070409;28;20218;-57
2021/07/08 03:35:57;;;;;;;2.33;2.13;;;;;23.80;100793.00;;;;2070150;28;20588;-54
2021/07/08 03:36:57;;;;;;;2.43;2.23;;;;;23.80;100803.00;;;;2070086;28;20372;-55
2021/07/08 03:37:58;;;;;;;2.23;2.03;;;;;23.80;100793.00;;;;2069954;28;20222;-53
2021/07/08 03:38:58;;;;;;;2.20;1.97;;;;;23.80;100791.00;;;;2067124;28;20288;-53
2021/07/08 03:39:58;;;;;;;2.60;2.40;;;;;23.80;100758.00;;;;2069906;28;20217;-53
2021/07/08 03:40:59;;;;;;;2.57;2.37;;;;;23.80;100797.00;;;;2069433;28;20586;-57
2021/07/08 03:41:59;;;;;;;1.93;1.80;;;;;23.80;100797.00;;;;2070280;28;20695;-54
2021/07/08 03:43:00;;;;;;;2.33;2.13;;;;;23.80;100794.00;;;;2070431;28;20218;-55
2021/07/08 03:44:01;;;;;;;2.50;2.25;;;;;23.80;100797.00;;;;2069784;28;20252;-56
2021/07/08 03:45:05;;;;;;;3.37;2.00;;;;;23.80;100796.00;;;;2070185;28;20346;-54
2021/07/08 03:46:05;;;;;;;2.70;2.05;;;;;23.80;100774.00;;;;2070316;28;20218;-55
2021/07/08 03:47:06;;;;;;;2.43;2.10;;;;;23.80;100794.00;;;;2063739;28;20214;-53
2021/07/08 03:48:06;;;;;;;2.50;2.30;;;;;23.80;100790.00;;;;2062313;28;20207;-54
2021/07/08 03:49:06;;;;;;;2.60;2.10;;;;;23.70;100795.00;;;;2065192;28;20215;-54
2021/07/08 03:50:08;;;;;;;2.17;2.00;;;;;23.80;100796.00;;;;2062727;28;20219;-57
2021/07/08 03:51:08;;;;;;;2.13;1.98;;;;;23.80;100789.00;;;;2061561;28;20211;-54
2021/07/08 03:52:08;;;;;;;2.30;2.10;;;;;23.80;100792.00;;;;2061146;28;20297;-55
2021/07/08 03:53:09;;;;;;;2.00;1.90;;;;;23.80;100799.00;;;;2062609;28;20219;-56
2021/07/08 03:54:09;;;;;;;2.27;2.10;;;;;23.80;100795.00;;;;2062277;28;20628;-56
2021/07/08 03:55:11;;;;;;;2.50;2.20;;;;;23.80;100800.00;;;;2062455;28;20559;-56
2021/07/08 03:56:13;;;;;;;2.10;2.00;;;;;23.80;100798.00;;;;2062679;28;20215;-53
2021/07/08 03:57:14;;;;;;;2.28;2.10;;;;;23.80;100801.00;;;;2066988;28;20224;-54
2021/07/08 03:58:14;;;;;;;2.30;2.10;;;;;23.80;100808.00;;;;2070316;28;20218;-54
2021/07/08 03:59:14;;;;;;;2.33;2.17;;;;;23.80;100803.00;;;;2070445;28;20371;-54
2021/07/08 04:00:15;;;;;;;2.70;2.27;;;;;23.80;100803.00;;;;2069340;28;20582;-55
2021/07/08 04:01:16;;;;;;;4.90;2.25;;;;;23.80;100813.00;;;;2070529;28;20746;-54
2021/07/08 04:02:16;;;;;;;2.13;1.90;;;;;23.80;100808.00;;;;2070751;28;20210;-54
2021/07/08 04:03:17;;;;;;;1.90;1.80;;;;;23.80;100813.00;;;;2070680;28;20678;-54
2021/07/08 04:04:17;;;;;;;2.50;2.30;;;;;23.80;100810.00;;;;2071000;28;20694;-52
2021/07/08 04:05:17;;;;;;;2.20;2.10;;;;;23.70;100807.00;;;;2072048;28;20267;-56
2021/07/08 04:06:18;;;;;;;2.10;1.93;;;;;23.80;100800.00;;;;2072311;28;20264;-55
2021/07/08 04:07:18;;;;;;;2.23;2.03;;;;;23.80;100812.00;;;;2072202;28;20257;-55
2021/07/08 04:08:18;;;;;;;2.27;2.07;;;;;23.70;100807.00;;;;2071915;28;20222;-53
2021/07/08 04:09:19;;;;;;;2.47;2.27;;;;;23.80;100811.00;;;;2072060;28;20217;-54
2021/07/08 04:10:19;;;;;;;2.23;2.10;;;;;23.80;100812.00;;;;2071474;28;20210;-53
2021/07/08 04:11:19;;;;;;;2.50;2.30;;;;;23.70;100803.00;;;;2072018;28;20210;-56
2021/07/08 04:12:20;;;;;;;2.33;2.13;;;;;23.80;100810.00;;;;2071873;28;20657;-54
2021/07/08 04:13:21;;;;;;;3.03;2.37;;;;;23.70;100804.00;;;;2072134;28;20206;-54
2021/07/08 04:14:21;;;;;;;2.10;2.00;;;;;23.70;100817.00;;;;2072274;28;20210;-54
2021/07/08 04:15:21;;;;;;;2.33;2.13;;;;;23.80;100814.00;;;;2071859;28;20977;-54
2021/07/08 04:16:22;;;;;;;2.80;2.20;;;;;23.80;100822.00;;;;2074359;28;20241;-56
2021/07/08 04:17:22;;;;;;;2.37;2.17;;;;;23.70;100815.00;;;;2073778;28;20627;-54
2021/07/08 04:18:22;;;;;;;2.00;1.80;;;;;23.70;100814.00;;;;2070919;28;20219;-54
2021/07/08 04:19:23;;;;;;;2.10;2.00;;;;;23.70;100819.00;;;;2066221;28;20219;-53
2021/07/08 04:20:23;;;;;;;3.60;2.00;;;;;23.70;100815.00;;;;2063269;28;20234;-53
2021/07/08 04:21:24;;;;;;;2.43;2.17;;;;;23.70;100813.00;;;;2063443;28;20217;-54
2021/07/08 04:22:24;;;;;;;1.90;1.80;;;;;23.80;100822.00;;;;2062984;28;20679;-56
2021/07/08 04:23:24;;;;;;;2.40;2.20;;;;;23.70;100827.00;;;;2064058;28;20265;-56
2021/07/08 04:24:25;;;;;;;1.87;1.77;;;;;23.70;100826.00;;;;2064054;28;20288;-56
2021/07/08 04:25:25;;;;;;;2.07;1.80;;;;;23.70;100829.00;;;;2064165;28;20300;-55
2021/07/08 04:26:26;;;;;;;2.30;2.10;;;;;23.70;100828.00;;;;2064032;28;20561;-57
2021/07/08 04:27:27;;;;;;;2.17;2.07;;;;;23.70;100835.00;;;;2068196;28;20307;-57
2021/07/08 04:28:29;;;;;;;2.00;1.85;;;;;23.70;100823.00;;;;2071918;28;20605;-55
2021/07/08 04:29:29;;;;;;;2.10;1.98;;;;;23.70;100833.00;;;;2071829;28;20210;-56
2021/07/08 04:30:30;;;;;;;2.80;2.07;;;;;23.70;100829.00;;;;2070899;28;20261;-57
2021/07/08 04:31:31;;;;;;;2.60;2.30;;;;;23.70;100827.00;;;;2072073;28;20221;-55
2021/07/08 04:32:31;;;;;;;2.10;1.80;;;;;23.80;100822.00;;;;2071680;28;20322;-53
2021/07/08 04:33:31;;;;;;;3.97;2.03;;;;;23.80;100820.00;;;;2071417;28;20218;-54
2021/07/08 04:34:32;;;;;;;2.57;2.00;;;;;23.80;100823.00;;;;2071980;28;20698;-53
2021/07/08 04:36:38;;;;;;;2.63;2.17;;;;;23.80;100829.00;;;;2071816;28;20736;-56
2021/07/08 04:37:41;;;;;;;2.93;2.10;;;;;23.80;100833.00;;;;2071296;28;20265;-53
2021/07/08 04:38:42;;;;;;;1.83;1.73;;;;;23.80;100827.00;;;;2069226;28;20226;-55
2021/07/08 04:39:42;;;;;;;2.60;1.92;;;;;23.80;100826.00;;;;2071810;28;20241;-54
2021/07/08 04:40:43;;;;;;;2.37;2.17;;;;;23.80;100825.00;;;;2071142;28;20217;-55
2021/07/08 04:41:43;;;;;;;1.90;1.70;;;;;23.80;100837.00;;;;2071699;28;20222;-54
2021/07/08 04:42:44;;;;;;;2.17;1.97;;;;;23.80;100828.00;;;;2072019;28;20210;-52
2021/07/08 04:43:44;;;;;;;3.22;2.40;;;;;23.80;100823.00;;;;2071441;28;20926;-57
2021/07/08 04:44:45;;;;;;;2.40;2.07;;;;;23.80;100830.00;;;;2071359;28;20218;-54
2021/07/08 04:45:46;;;;;;;2.33;2.13;;;;;23.80;100832.00;;;;2066861;28;21034;-55
2021/07/08 04:46:46;;;;;;;2.43;2.23;;;;;23.80;100830.00;;;;2062461;28;20581;-55
2021/07/08 04:47:46;;;;;;;2.80;2.33;;;;;23.80;100835.00;;;;2055097;28;20216;-55
2021/07/08 04:48:47;;;;;;;2.60;2.10;;;;;23.80;100838.00;;;;2065921;28;20218;-56
2021/07/08 04:49:47;;;;;;;2.40;2.03;;;;;23.80;100833.00;;;;2069651;28;20221;-54
2021/07/08 04:50:47;;;;;;;2.30;2.10;;;;;23.80;100832.00;;;;2070149;28;20267;-52
2021/07/08 04:51:48;;;;;;;2.17;1.80;;;;;23.80;100836.00;;;;2078631;28;20327;-55
2021/07/08 04:52:48;;;;;;;2.27;2.10;;;;;23.80;100838.00;;;;2071327;28;20241;-54
2021/07/08 04:53:50;;;;;;;2.50;2.23;;;;;23.80;100837.00;;;;2071237;28;20214;-56
2021/07/08 04:54:50;;;;;;;2.97;2.22;;;;;23.70;100835.00;;;;2080103;28;20221;-54
2021/07/08 04:55:50;;;;;;;2.40;2.20;;;;;23.70;100836.00;;;;2070789;28;20284;-53
2021/07/08 04:56:51;;;;;;;2.80;1.70;;;;;23.70;100831.00;;;;2071017;28;20256;-54
2021/07/08 04:57:52;;;;;;;2.00;1.90;;;;;23.70;100835.00;;;;2071942;28;20261;-56
2021/07/08 04:58:52;;;;;;;3.50;1.98;;;;;23.80;100829.00;;;;2071533;28;20297;-54
2021/07/08 04:59:53;;;;;;;2.63;2.30;;;;;23.90;100827.00;;;;2071514;28;20583;-54
2021/07/08 05:00:53;;;;;;;2.80;1.77;;;;;23.80;100829.00;;;;2070893;28;20625;-57
2021/07/08 05:01:53;;;;;;;2.90;1.90;;;;;23.90;100817.00;;;;2071733;28;20210;-56